Otter River, Massachusetts
Current Conditions -  °F | °C
As of 10:52 AM on Thursday 18 Dec 2014 (Local Time) from KORE Reporting Station
Overcast Overcast  
Wind Chill: 29°   Ceiling: 3000
Heat Index: 37°   Visibility: 10mi
Dew Point: 27°   Wind: 13mph
Humidity: 67%   Direction: 300°WNW
Pressure: 29.81"   Gusts: 21mph
Location:  42.602°N, 72.089°W
Report Text: KORE 181552Z AUTO 30011G18KT 10SM OVC030 03/M03 A2981 RMK AO2 SLP101 T00281028
Loading
Personal Weather Stations






























Interactive Weather Map New forecast layout! Learn more

10-Day Weather Forecast

Advertisements
Track Severe Weather on mobile